Terminal Aerodrome Forecast
Issued by NWS

Home | Current Version | Previous Version | Text Only | Print | Product List | Glossary On
Versions: 1 2 3 4 5 6 7 8 9 10 11 12 13 14 15 16 17
000
FTAK31 PAJN 272300
TAFAJN
TAF
PAJN 272325Z 2800/2824 14015KT P6SM VCSH BKN050 OVC070
      TEMPO 2800/2803 14015G21KT -SHRA BKN040 OVC060
     FM280400 08003KT P6SM VCSH BKN100
     FM281500 VRB03KT P6SM -RA OVC050
     FM282200 12012G22KT P6SM -RA OVC030=

USA.gov is the U.S. government's official web portal to all federal, state and local government web resources and services.